sensor_id;sensor_type;location;lat;lon;timestamp;P1;durP1;ratioP1;P2;durP2;ratioP2
54835;SDS011;43486;43.574;1.476;2022-12-13T00:01:14;3.25;;;1.63;;
54835;SDS011;43486;43.574;1.476;2022-12-13T00:03:40;2.03;;;1.27;;
54835;SDS011;43486;43.574;1.476;2022-12-13T00:06:06;7.82;;;2.92;;
54835;SDS011;43486;43.574;1.476;2022-12-13T00:08:32;6.28;;;2.55;;
54835;SDS011;43486;43.574;1.476;2022-12-13T00:10:58;3.40;;;1.50;;
54835;SDS011;43486;43.574;1.476;2022-12-13T00:13:25;4.35;;;2.00;;
54835;SDS011;43486;43.574;1.476;2022-12-13T00:16:01;3.13;;;1.77;;
54835;SDS011;43486;43.574;1.476;2022-12-13T00:18:28;4.32;;;2.38;;
54835;SDS011;43486;43.574;1.476;2022-12-13T00:20:53;2.90;;;1.63;;
54835;SDS011;43486;43.574;1.476;2022-12-13T00:23:19;6.57;;;2.15;;
54835;SDS011;43486;43.574;1.476;2022-12-13T00:25:45;4.03;;;1.90;;
54835;SDS011;43486;43.574;1.476;2022-12-13T00:28:10;4.05;;;1.60;;
54835;SDS011;43486;43.574;1.476;2022-12-13T00:30:36;5.55;;;2.17;;
54835;SDS011;43486;43.574;1.476;2022-12-13T00:33:02;3.08;;;1.48;;
54835;SDS011;43486;43.574;1.476;2022-12-13T00:35:27;3.22;;;1.58;;
54835;SDS011;43486;43.574;1.476;2022-12-13T00:37:53;3.45;;;1.73;;
54835;SDS011;43486;43.574;1.476;2022-12-13T00:40:18;5.03;;;2.47;;
54835;SDS011;43486;43.574;1.476;2022-12-13T00:42:45;3.20;;;1.40;;
54835;SDS011;43486;43.574;1.476;2022-12-13T00:45:10;3.40;;;1.83;;
54835;SDS011;43486;43.574;1.476;2022-12-13T00:47:36;2.20;;;1.38;;
54835;SDS011;43486;43.574;1.476;2022-12-13T00:50:02;4.97;;;1.85;;
54835;SDS011;43486;43.574;1.476;2022-12-13T00:52:28;3.00;;;1.65;;
54835;SDS011;43486;43.574;1.476;2022-12-13T00:54:54;4.63;;;1.77;;
54835;SDS011;43486;43.574;1.476;2022-12-13T00:57:19;5.95;;;2.30;;
54835;SDS011;43486;43.574;1.476;2022-12-13T00:59:45;3.28;;;1.70;;
54835;SDS011;43486;43.574;1.476;2022-12-13T01:02:10;3.83;;;1.73;;
54835;SDS011;43486;43.574;1.476;2022-12-13T01:04:36;2.55;;;1.30;;
54835;SDS011;43486;43.574;1.476;2022-12-13T01:07:01;2.53;;;1.77;;
54835;SDS011;43486;43.574;1.476;2022-12-13T01:09:27;5.00;;;1.65;;
54835;SDS011;43486;43.574;1.476;2022-12-13T01:11:58;3.90;;;1.83;;
54835;SDS011;43486;43.574;1.476;2022-12-13T01:14:24;1.98;;;1.30;;
54835;SDS011;43486;43.574;1.476;2022-12-13T01:16:50;3.33;;;1.75;;
54835;SDS011;43486;43.574;1.476;2022-12-13T01:19:19;2.50;;;1.38;;
54835;SDS011;43486;43.574;1.476;2022-12-13T01:21:46;4.00;;;1.73;;
54835;SDS011;43486;43.574;1.476;2022-12-13T01:24:11;3.15;;;1.58;;
54835;SDS011;43486;43.574;1.476;2022-12-13T01:26:37;2.50;;;1.50;;
54835;SDS011;43486;43.574;1.476;2022-12-13T01:29:02;2.13;;;1.30;;
54835;SDS011;43486;43.574;1.476;2022-12-13T01:31:29;2.40;;;1.42;;
54835;SDS011;43486;43.574;1.476;2022-12-13T01:33:55;3.28;;;1.38;;
54835;SDS011;43486;43.574;1.476;2022-12-13T01:36:21;3.95;;;1.80;;
54835;SDS011;43486;43.574;1.476;2022-12-13T01:38:47;3.30;;;1.63;;
54835;SDS011;43486;43.574;1.476;2022-12-13T01:41:17;4.32;;;1.35;;
54835;SDS011;43486;43.574;1.476;2022-12-13T01:46:12;2.90;;;1.45;;
54835;SDS011;43486;43.574;1.476;2022-12-13T01:48:41;2.00;;;1.20;;
54835;SDS011;43486;43.574;1.476;2022-12-13T01:51:09;2.80;;;1.50;;
54835;SDS011;43486;43.574;1.476;2022-12-13T01:53:36;1.15;;;0.90;;
54835;SDS011;43486;43.574;1.476;2022-12-13T01:56:05;3.03;;;1.40;;
54835;SDS011;43486;43.574;1.476;2022-12-13T01:58:33;3.42;;;2.08;;
54835;SDS011;43486;43.574;1.476;2022-12-13T02:01:00;3.15;;;1.58;;
54835;SDS011;43486;43.574;1.476;2022-12-13T02:03:26;2.88;;;1.50;;
54835;SDS011;43486;43.574;1.476;2022-12-13T02:08:28;2.35;;;1.27;;
54835;SDS011;43486;43.574;1.476;2022-12-13T02:10:54;3.60;;;1.20;;
54835;SDS011;43486;43.574;1.476;2022-12-13T02:13:20;1.70;;;1.23;;
54835;SDS011;43486;43.574;1.476;2022-12-13T02:15:50;1.52;;;1.23;;
54835;SDS011;43486;43.574;1.476;2022-12-13T02:23:52;3.95;;;1.92;;
54835;SDS011;43486;43.574;1.476;2022-12-13T02:26:36;2.13;;;1.13;;
54835;SDS011;43486;43.574;1.476;2022-12-13T02:29:14;1.90;;;1.10;;
54835;SDS011;43486;43.574;1.476;2022-12-13T02:35:05;2.53;;;1.48;;
54835;SDS011;43486;43.574;1.476;2022-12-13T02:37:57;3.13;;;1.50;;
54835;SDS011;43486;43.574;1.476;2022-12-13T02:40:40;3.78;;;1.75;;
54835;SDS011;43486;43.574;1.476;2022-12-13T02:45:44;2.70;;;1.50;;
54835;SDS011;43486;43.574;1.476;2022-12-13T02:48:12;4.43;;;1.73;;
54835;SDS011;43486;43.574;1.476;2022-12-13T02:50:38;1.85;;;1.10;;
54835;SDS011;43486;43.574;1.476;2022-12-13T02:53:04;2.40;;;1.75;;
54835;SDS011;43486;43.574;1.476;2022-12-13T02:55:31;1.98;;;1.40;;
54835;SDS011;43486;43.574;1.476;2022-12-13T02:57:59;2.83;;;1.40;;
54835;SDS011;43486;43.574;1.476;2022-12-13T03:00:32;1.45;;;1.10;;
54835;SDS011;43486;43.574;1.476;2022-12-13T03:05:53;3.40;;;1.38;;
54835;SDS011;43486;43.574;1.476;2022-12-13T03:08:46;1.88;;;1.20;;
54835;SDS011;43486;43.574;1.476;2022-12-13T03:11:19;2.30;;;1.33;;
54835;SDS011;43486;43.574;1.476;2022-12-13T03:16:30;2.10;;;1.27;;
54835;SDS011;43486;43.574;1.476;2022-12-13T03:19:02;1.83;;;1.30;;
54835;SDS011;43486;43.574;1.476;2022-12-13T03:21:36;2.53;;;1.70;;
54835;SDS011;43486;43.574;1.476;2022-12-13T03:24:08;2.28;;;1.30;;
54835;SDS011;43486;43.574;1.476;2022-12-13T03:26:34;2.80;;;1.38;;
54835;SDS011;43486;43.574;1.476;2022-12-13T03:29:01;1.38;;;1.10;;
54835;SDS011;43486;43.574;1.476;2022-12-13T03:31:27;1.95;;;1.13;;
54835;SDS011;43486;43.574;1.476;2022-12-13T03:33:52;1.85;;;1.27;;
54835;SDS011;43486;43.574;1.476;2022-12-13T03:36:18;2.17;;;1.10;;
54835;SDS011;43486;43.574;1.476;2022-12-13T03:38:44;1.13;;;1.00;;
54835;SDS011;43486;43.574;1.476;2022-12-13T03:41:14;1.63;;;0.95;;
54835;SDS011;43486;43.574;1.476;2022-12-13T03:43:41;2.72;;;1.50;;
54835;SDS011;43486;43.574;1.476;2022-12-13T03:46:07;1.98;;;1.42;;
54835;SDS011;43486;43.574;1.476;2022-12-13T03:48:32;1.85;;;1.15;;
54835;SDS011;43486;43.574;1.476;2022-12-13T03:50:58;1.23;;;1.13;;
54835;SDS011;43486;43.574;1.476;2022-12-13T03:53:24;1.35;;;0.90;;
54835;SDS011;43486;43.574;1.476;2022-12-13T03:55:49;2.13;;;1.05;;
54835;SDS011;43486;43.574;1.476;2022-12-13T03:58:15;1.95;;;1.02;;
54835;SDS011;43486;43.574;1.476;2022-12-13T04:00:40;2.05;;;0.98;;
54835;SDS011;43486;43.574;1.476;2022-12-13T04:03:05;1.23;;;1.10;;
54835;SDS011;43486;43.574;1.476;2022-12-13T04:05:31;1.77;;;0.85;;
54835;SDS011;43486;43.574;1.476;2022-12-13T04:07:57;1.63;;;1.02;;
54835;SDS011;43486;43.574;1.476;2022-12-13T04:10:23;2.17;;;1.20;;
54835;SDS011;43486;43.574;1.476;2022-12-13T04:12:48;1.48;;;1.08;;
54835;SDS011;43486;43.574;1.476;2022-12-13T04:15:37;1.60;;;0.90;;
54835;SDS011;43486;43.574;1.476;2022-12-13T04:18:03;2.15;;;1.17;;
54835;SDS011;43486;43.574;1.476;2022-12-13T04:20:28;0.82;;;0.80;;
54835;SDS011;43486;43.574;1.476;2022-12-13T04:22:53;1.08;;;0.93;;
54835;SDS011;43486;43.574;1.476;2022-12-13T04:25:19;3.10;;;1.63;;
54835;SDS011;43486;43.574;1.476;2022-12-13T04:27:45;0.90;;;0.90;;
54835;SDS011;43486;43.574;1.476;2022-12-13T04:30:10;1.40;;;1.02;;
54835;SDS011;43486;43.574;1.476;2022-12-13T04:32:36;1.80;;;1.13;;
54835;SDS011;43486;43.574;1.476;2022-12-13T04:35:01;2.47;;;1.33;;
54835;SDS011;43486;43.574;1.476;2022-12-13T04:37:27;1.35;;;1.25;;
54835;SDS011;43486;43.574;1.476;2022-12-13T04:39:53;1.85;;;1.10;;
54835;SDS011;43486;43.574;1.476;2022-12-13T04:42:18;0.98;;;0.80;;
54835;SDS011;43486;43.574;1.476;2022-12-13T04:44:43;1.17;;;1.00;;
54835;SDS011;43486;43.574;1.476;2022-12-13T04:47:09;4.15;;;1.30;;
54835;SDS011;43486;43.574;1.476;2022-12-13T04:49:34;3.28;;;0.95;;
54835;SDS011;43486;43.574;1.476;2022-12-13T04:52:00;2.55;;;1.40;;
54835;SDS011;43486;43.574;1.476;2022-12-13T04:54:26;2.88;;;1.50;;
54835;SDS011;43486;43.574;1.476;2022-12-13T04:56:51;0.90;;;0.90;;
54835;SDS011;43486;43.574;1.476;2022-12-13T04:59:17;2.50;;;1.00;;
54835;SDS011;43486;43.574;1.476;2022-12-13T05:01:42;1.65;;;1.08;;
54835;SDS011;43486;43.574;1.476;2022-12-13T05:04:07;1.95;;;1.25;;
54835;SDS011;43486;43.574;1.476;2022-12-13T05:06:33;1.48;;;1.00;;
54835;SDS011;43486;43.574;1.476;2022-12-13T05:08:59;1.33;;;0.80;;
54835;SDS011;43486;43.574;1.476;2022-12-13T05:11:25;1.63;;;1.17;;
54835;SDS011;43486;43.574;1.476;2022-12-13T05:13:50;1.35;;;1.13;;
54835;SDS011;43486;43.574;1.476;2022-12-13T05:16:16;1.40;;;0.93;;
54835;SDS011;43486;43.574;1.476;2022-12-13T05:18:41;1.90;;;1.30;;
54835;SDS011;43486;43.574;1.476;2022-12-13T05:21:07;1.58;;;1.00;;
54835;SDS011;43486;43.574;1.476;2022-12-13T05:23:34;4.88;;;1.08;;
54835;SDS011;43486;43.574;1.476;2022-12-13T05:26:00;0.82;;;0.82;;
54835;SDS011;43486;43.574;1.476;2022-12-13T05:28:26;1.90;;;1.13;;
54835;SDS011;43486;43.574;1.476;2022-12-13T05:30:54;1.00;;;0.90;;
54835;SDS011;43486;43.574;1.476;2022-12-13T05:33:20;1.70;;;1.10;;
54835;SDS011;43486;43.574;1.476;2022-12-13T05:35:46;1.38;;;1.00;;
54835;SDS011;43486;43.574;1.476;2022-12-13T05:38:12;1.75;;;1.30;;
54835;SDS011;43486;43.574;1.476;2022-12-13T05:40:37;0.90;;;0.82;;
54835;SDS011;43486;43.574;1.476;2022-12-13T05:43:03;1.85;;;1.13;;
54835;SDS011;43486;43.574;1.476;2022-12-13T05:45:29;1.23;;;0.85;;
54835;SDS011;43486;43.574;1.476;2022-12-13T05:47:55;1.60;;;1.17;;
54835;SDS011;43486;43.574;1.476;2022-12-13T05:50:21;1.73;;;1.10;;
54835;SDS011;43486;43.574;1.476;2022-12-13T05:52:46;1.90;;;1.20;;
54835;SDS011;43486;43.574;1.476;2022-12-13T05:55:11;2.15;;;1.80;;
54835;SDS011;43486;43.574;1.476;2022-12-13T05:57:38;1.55;;;0.98;;
54835;SDS011;43486;43.574;1.476;2022-12-13T06:00:04;1.02;;;0.85;;
54835;SDS011;43486;43.574;1.476;2022-12-13T06:02:35;0.70;;;0.70;;
54835;SDS011;43486;43.574;1.476;2022-12-13T06:05:01;4.40;;;1.40;;
54835;SDS011;43486;43.574;1.476;2022-12-13T06:07:27;1.10;;;0.80;;
54835;SDS011;43486;43.574;1.476;2022-12-13T06:09:52;2.13;;;1.30;;
54835;SDS011;43486;43.574;1.476;2022-12-13T06:12:18;1.13;;;1.02;;
54835;SDS011;43486;43.574;1.476;2022-12-13T06:14:43;2.83;;;1.20;;
54835;SDS011;43486;43.574;1.476;2022-12-13T06:17:09;1.80;;;1.10;;
54835;SDS011;43486;43.574;1.476;2022-12-13T06:19:35;1.35;;;0.90;;
54835;SDS011;43486;43.574;1.476;2022-12-13T06:22:00;0.98;;;0.80;;
54835;SDS011;43486;43.574;1.476;2022-12-13T06:24:25;1.75;;;0.90;;
54835;SDS011;43486;43.574;1.476;2022-12-13T06:26:51;1.42;;;0.82;;
54835;SDS011;43486;43.574;1.476;2022-12-13T06:29:17;2.05;;;1.35;;
54835;SDS011;43486;43.574;1.476;2022-12-13T06:31:43;0.85;;;0.77;;
54835;SDS011;43486;43.574;1.476;2022-12-13T06:34:09;1.17;;;1.05;;
54835;SDS011;43486;43.574;1.476;2022-12-13T06:36:34;1.70;;;1.00;;
54835;SDS011;43486;43.574;1.476;2022-12-13T06:39:01;1.02;;;0.80;;
54835;SDS011;43486;43.574;1.476;2022-12-13T06:41:27;1.35;;;1.05;;
54835;SDS011;43486;43.574;1.476;2022-12-13T06:43:53;1.80;;;1.10;;
54835;SDS011;43486;43.574;1.476;2022-12-13T06:46:18;1.10;;;0.98;;
54835;SDS011;43486;43.574;1.476;2022-12-13T06:48:44;1.30;;;0.90;;
54835;SDS011;43486;43.574;1.476;2022-12-13T06:51:10;0.73;;;0.73;;
54835;SDS011;43486;43.574;1.476;2022-12-13T06:53:35;1.75;;;1.10;;
54835;SDS011;43486;43.574;1.476;2022-12-13T06:56:02;1.60;;;1.00;;
54835;SDS011;43486;43.574;1.476;2022-12-13T06:58:30;0.95;;;0.82;;
54835;SDS011;43486;43.574;1.476;2022-12-13T07:01:04;1.15;;;0.85;;
54835;SDS011;43486;43.574;1.476;2022-12-13T07:03:30;1.55;;;0.98;;
54835;SDS011;43486;43.574;1.476;2022-12-13T07:05:57;1.70;;;1.13;;
54835;SDS011;43486;43.574;1.476;2022-12-13T07:08:24;1.70;;;0.95;;
54835;SDS011;43486;43.574;1.476;2022-12-13T07:10:50;3.10;;;1.88;;
54835;SDS011;43486;43.574;1.476;2022-12-13T07:13:17;0.98;;;0.88;;
54835;SDS011;43486;43.574;1.476;2022-12-13T07:15:44;1.40;;;1.00;;
54835;SDS011;43486;43.574;1.476;2022-12-13T07:18:10;2.28;;;1.10;;
54835;SDS011;43486;43.574;1.476;2022-12-13T07:20:37;2.65;;;1.42;;
54835;SDS011;43486;43.574;1.476;2022-12-13T07:23:05;1.65;;;0.98;;
54835;SDS011;43486;43.574;1.476;2022-12-13T07:25:31;0.82;;;0.80;;
54835;SDS011;43486;43.574;1.476;2022-12-13T07:28:01;1.65;;;1.17;;
54835;SDS011;43486;43.574;1.476;2022-12-13T07:30:36;5.68;;;1.10;;
54835;SDS011;43486;43.574;1.476;2022-12-13T07:33:03;1.67;;;1.10;;
54835;SDS011;43486;43.574;1.476;2022-12-13T07:35:29;2.38;;;1.50;;
54835;SDS011;43486;43.574;1.476;2022-12-13T07:37:56;1.02;;;0.93;;
54835;SDS011;43486;43.574;1.476;2022-12-13T07:40:22;2.53;;;1.40;;
54835;SDS011;43486;43.574;1.476;2022-12-13T07:42:51;1.48;;;1.08;;
54835;SDS011;43486;43.574;1.476;2022-12-13T07:45:17;1.77;;;1.05;;
54835;SDS011;43486;43.574;1.476;2022-12-13T07:47:43;2.08;;;1.20;;
54835;SDS011;43486;43.574;1.476;2022-12-13T07:50:08;1.67;;;1.30;;
54835;SDS011;43486;43.574;1.476;2022-12-13T07:52:34;6.18;;;1.23;;
54835;SDS011;43486;43.574;1.476;2022-12-13T07:54:59;4.40;;;1.10;;
54835;SDS011;43486;43.574;1.476;2022-12-13T07:57:26;6.07;;;1.45;;
54835;SDS011;43486;43.574;1.476;2022-12-13T07:59:51;5.05;;;1.17;;
54835;SDS011;43486;43.574;1.476;2022-12-13T08:02:17;6.63;;;1.35;;
54835;SDS011;43486;43.574;1.476;2022-12-13T08:04:42;2.00;;;1.33;;
54835;SDS011;43486;43.574;1.476;2022-12-13T08:07:08;5.22;;;1.48;;
54835;SDS011;43486;43.574;1.476;2022-12-13T08:09:33;5.10;;;0.90;;
54835;SDS011;43486;43.574;1.476;2022-12-13T08:11:59;1.65;;;1.08;;
54835;SDS011;43486;43.574;1.476;2022-12-13T08:14:25;1.98;;;1.30;;
54835;SDS011;43486;43.574;1.476;2022-12-13T08:16:51;1.98;;;1.23;;
54835;SDS011;43486;43.574;1.476;2022-12-13T08:19:16;4.72;;;1.58;;
54835;SDS011;43486;43.574;1.476;2022-12-13T08:21:41;2.80;;;1.52;;
54835;SDS011;43486;43.574;1.476;2022-12-13T08:24:07;2.53;;;1.35;;
54835;SDS011;43486;43.574;1.476;2022-12-13T08:26:32;1.92;;;1.10;;
54835;SDS011;43486;43.574;1.476;2022-12-13T08:28:58;1.50;;;1.08;;
54835;SDS011;43486;43.574;1.476;2022-12-13T08:31:24;2.30;;;1.52;;
54835;SDS011;43486;43.574;1.476;2022-12-13T08:33:49;2.35;;;1.40;;
54835;SDS011;43486;43.574;1.476;2022-12-13T08:36:16;2.38;;;1.55;;
54835;SDS011;43486;43.574;1.476;2022-12-13T08:38:45;1.52;;;0.93;;
54835;SDS011;43486;43.574;1.476;2022-12-13T08:41:11;2.08;;;1.30;;
54835;SDS011;43486;43.574;1.476;2022-12-13T08:43:37;2.75;;;1.15;;
54835;SDS011;43486;43.574;1.476;2022-12-13T08:46:02;2.80;;;1.40;;
54835;SDS011;43486;43.574;1.476;2022-12-13T08:48:28;2.88;;;1.73;;
54835;SDS011;43486;43.574;1.476;2022-12-13T08:50:57;1.65;;;1.05;;
54835;SDS011;43486;43.574;1.476;2022-12-13T08:53:24;3.22;;;2.08;;
54835;SDS011;43486;43.574;1.476;2022-12-13T08:55:49;1.75;;;1.15;;
54835;SDS011;43486;43.574;1.476;2022-12-13T08:58:14;2.10;;;1.73;;
54835;SDS011;43486;43.574;1.476;2022-12-13T09:00:40;3.20;;;1.58;;
54835;SDS011;43486;43.574;1.476;2022-12-13T09:03:07;2.55;;;1.25;;
54835;SDS011;43486;43.574;1.476;2022-12-13T09:05:32;2.17;;;1.33;;
54835;SDS011;43486;43.574;1.476;2022-12-13T09:07:58;2.53;;;1.38;;
54835;SDS011;43486;43.574;1.476;2022-12-13T09:10:26;2.50;;;1.65;;
54835;SDS011;43486;43.574;1.476;2022-12-13T09:12:52;2.13;;;1.15;;
54835;SDS011;43486;43.574;1.476;2022-12-13T09:15:18;2.42;;;1.40;;
54835;SDS011;43486;43.574;1.476;2022-12-13T09:17:43;2.13;;;1.40;;
54835;SDS011;43486;43.574;1.476;2022-12-13T09:20:10;5.10;;;1.90;;
54835;SDS011;43486;43.574;1.476;2022-12-13T09:22:36;2.10;;;1.48;;
54835;SDS011;43486;43.574;1.476;2022-12-13T09:25:02;4.03;;;1.15;;
54835;SDS011;43486;43.574;1.476;2022-12-13T09:27:29;2.90;;;1.20;;
54835;SDS011;43486;43.574;1.476;2022-12-13T09:29:54;6.95;;;1.27;;
54835;SDS011;43486;43.574;1.476;2022-12-13T09:32:22;1.83;;;1.00;;
54835;SDS011;43486;43.574;1.476;2022-12-13T09:34:48;3.53;;;1.35;;
54835;SDS011;43486;43.574;1.476;2022-12-13T09:37:14;2.97;;;1.40;;
54835;SDS011;43486;43.574;1.476;2022-12-13T09:39:40;5.57;;;1.50;;
54835;SDS011;43486;43.574;1.476;2022-12-13T09:42:05;1.85;;;1.23;;
54835;SDS011;43486;43.574;1.476;2022-12-13T09:44:38;1.17;;;0.93;;
54835;SDS011;43486;43.574;1.476;2022-12-13T09:47:06;2.72;;;1.70;;
54835;SDS011;43486;43.574;1.476;2022-12-13T09:49:38;2.03;;;1.27;;
54835;SDS011;43486;43.574;1.476;2022-12-13T09:52:06;1.80;;;1.17;;
54835;SDS011;43486;43.574;1.476;2022-12-13T09:54:34;2.15;;;1.45;;
54835;SDS011;43486;43.574;1.476;2022-12-13T09:57:00;2.70;;;1.52;;
54835;SDS011;43486;43.574;1.476;2022-12-13T09:59:33;2.85;;;1.48;;
54835;SDS011;43486;43.574;1.476;2022-12-13T10:02:15;2.40;;;1.10;;
54835;SDS011;43486;43.574;1.476;2022-12-13T10:04:42;2.65;;;1.50;;
54835;SDS011;43486;43.574;1.476;2022-12-13T10:07:13;5.32;;;1.60;;
54835;SDS011;43486;43.574;1.476;2022-12-13T10:09:42;2.25;;;1.30;;
54835;SDS011;43486;43.574;1.476;2022-12-13T10:12:07;1.90;;;1.27;;
54835;SDS011;43486;43.574;1.476;2022-12-13T10:14:38;2.45;;;1.20;;
54835;SDS011;43486;43.574;1.476;2022-12-13T10:17:07;2.60;;;1.52;;
54835;SDS011;43486;43.574;1.476;2022-12-13T10:19:39;2.95;;;1.30;;
54835;SDS011;43486;43.574;1.476;2022-12-13T10:22:10;2.80;;;1.60;;
54835;SDS011;43486;43.574;1.476;2022-12-13T10:24:55;1.73;;;1.27;;
54835;SDS011;43486;43.574;1.476;2022-12-13T10:29:57;2.90;;;1.50;;
54835;SDS011;43486;43.574;1.476;2022-12-13T10:32:31;0.88;;;0.88;;
54835;SDS011;43486;43.574;1.476;2022-12-13T10:35:10;2.42;;;1.38;;
54835;SDS011;43486;43.574;1.476;2022-12-13T10:37:40;2.67;;;1.60;;
54835;SDS011;43486;43.574;1.476;2022-12-13T10:40:21;2.00;;;1.17;;
54835;SDS011;43486;43.574;1.476;2022-12-13T10:48:32;5.95;;;1.77;;
54835;SDS011;43486;43.574;1.476;2022-12-13T10:51:03;5.65;;;1.25;;
54835;SDS011;43486;43.574;1.476;2022-12-13T10:53:30;4.05;;;1.85;;
54835;SDS011;43486;43.574;1.476;2022-12-13T10:55:57;4.57;;;1.55;;
54835;SDS011;43486;43.574;1.476;2022-12-13T10:58:23;4.22;;;2.00;;
54835;SDS011;43486;43.574;1.476;2022-12-13T11:06:20;3.55;;;1.95;;
54835;SDS011;43486;43.574;1.476;2022-12-13T11:08:46;2.50;;;1.20;;
54835;SDS011;43486;43.574;1.476;2022-12-13T11:11:11;3.40;;;1.58;;
54835;SDS011;43486;43.574;1.476;2022-12-13T11:13:42;3.03;;;1.63;;
54835;SDS011;43486;43.574;1.476;2022-12-13T11:16:31;2.08;;;1.33;;
54835;SDS011;43486;43.574;1.476;2022-12-13T11:18:56;3.20;;;1.50;;
54835;SDS011;43486;43.574;1.476;2022-12-13T11:21:25;2.78;;;1.50;;
54835;SDS011;43486;43.574;1.476;2022-12-13T11:23:56;4.10;;;1.90;;
54835;SDS011;43486;43.574;1.476;2022-12-13T11:26:24;3.85;;;1.63;;
54835;SDS011;43486;43.574;1.476;2022-12-13T11:34:33;3.22;;;1.42;;
54835;SDS011;43486;43.574;1.476;2022-12-13T11:37:25;2.17;;;1.30;;
54835;SDS011;43486;43.574;1.476;2022-12-13T11:40:36;4.00;;;2.22;;
54835;SDS011;43486;43.574;1.476;2022-12-13T11:42:51;3.80;;;1.63;;
54835;SDS011;43486;43.574;1.476;2022-12-13T11:45:41;5.15;;;2.42;;
54835;SDS011;43486;43.574;1.476;2022-12-13T11:48:12;3.95;;;2.05;;
54835;SDS011;43486;43.574;1.476;2022-12-13T11:50:49;4.15;;;1.88;;
54835;SDS011;43486;43.574;1.476;2022-12-13T11:55:46;3.42;;;1.92;;
54835;SDS011;43486;43.574;1.476;2022-12-13T12:01:28;3.60;;;1.60;;
54835;SDS011;43486;43.574;1.476;2022-12-13T12:03:47;4.10;;;1.90;;
54835;SDS011;43486;43.574;1.476;2022-12-13T12:06:23;2.63;;;1.70;;
54835;SDS011;43486;43.574;1.476;2022-12-13T12:11:33;4.57;;;1.95;;
54835;SDS011;43486;43.574;1.476;2022-12-13T12:16:59;3.00;;;1.65;;
54835;SDS011;43486;43.574;1.476;2022-12-13T12:19:29;5.07;;;1.73;;
54835;SDS011;43486;43.574;1.476;2022-12-13T12:24:44;3.58;;;1.63;;
54835;SDS011;43486;43.574;1.476;2022-12-13T12:43:50;3.30;;;1.70;;
54835;SDS011;43486;43.574;1.476;2022-12-13T12:59:29;3.97;;;2.28;;
54835;SDS011;43486;43.574;1.476;2022-12-13T13:02:20;4.45;;;1.98;;
54835;SDS011;43486;43.574;1.476;2022-12-13T13:04:51;5.75;;;1.90;;
54835;SDS011;43486;43.574;1.476;2022-12-13T13:07:26;3.75;;;1.80;;
54835;SDS011;43486;43.574;1.476;2022-12-13T13:09:56;6.35;;;2.33;;
54835;SDS011;43486;43.574;1.476;2022-12-13T13:12:23;3.22;;;1.67;;
54835;SDS011;43486;43.574;1.476;2022-12-13T13:14:49;3.05;;;1.58;;
54835;SDS011;43486;43.574;1.476;2022-12-13T13:19:40;2.78;;;1.67;;
54835;SDS011;43486;43.574;1.476;2022-12-13T13:22:29;6.15;;;2.10;;
54835;SDS011;43486;43.574;1.476;2022-12-13T13:25:38;5.55;;;2.55;;
54835;SDS011;43486;43.574;1.476;2022-12-13T13:27:48;4.53;;;2.35;;
54835;SDS011;43486;43.574;1.476;2022-12-13T13:30:20;3.95;;;2.28;;
54835;SDS011;43486;43.574;1.476;2022-12-13T13:32:48;3.47;;;2.08;;
54835;SDS011;43486;43.574;1.476;2022-12-13T13:37:52;4.22;;;2.05;;
54835;SDS011;43486;43.574;1.476;2022-12-13T13:40:25;5.65;;;2.25;;
54835;SDS011;43486;43.574;1.476;2022-12-13T14:07:52;5.90;;;3.13;;
54835;SDS011;43486;43.574;1.476;2022-12-13T14:29:39;5.65;;;2.80;;
54835;SDS011;43486;43.574;1.476;2022-12-13T14:32:08;4.28;;;2.13;;
54835;SDS011;43486;43.574;1.476;2022-12-13T14:34:38;8.60;;;2.55;;
54835;SDS011;43486;43.574;1.476;2022-12-13T14:37:04;8.20;;;3.28;;
54835;SDS011;43486;43.574;1.476;2022-12-13T14:39:31;6.18;;;2.47;;
54835;SDS011;43486;43.574;1.476;2022-12-13T14:41:59;4.70;;;2.38;;
54835;SDS011;43486;43.574;1.476;2022-12-13T14:44:29;5.35;;;2.50;;
54835;SDS011;43486;43.574;1.476;2022-12-13T14:46:57;7.18;;;2.97;;
54835;SDS011;43486;43.574;1.476;2022-12-13T14:49:24;7.03;;;3.30;;
54835;SDS011;43486;43.574;1.476;2022-12-13T14:51:55;4.20;;;2.00;;
54835;SDS011;43486;43.574;1.476;2022-12-13T14:56:58;6.57;;;3.05;;
54835;SDS011;43486;43.574;1.476;2022-12-13T14:59:26;11.27;;;2.65;;
54835;SDS011;43486;43.574;1.476;2022-12-13T15:01:53;4.65;;;2.58;;
54835;SDS011;43486;43.574;1.476;2022-12-13T15:06:45;5.10;;;2.63;;
54835;SDS011;43486;43.574;1.476;2022-12-13T15:09:12;5.07;;;2.40;;
54835;SDS011;43486;43.574;1.476;2022-12-13T15:11:39;5.03;;;2.28;;
54835;SDS011;43486;43.574;1.476;2022-12-13T15:14:10;5.60;;;2.15;;
54835;SDS011;43486;43.574;1.476;2022-12-13T15:16:45;5.32;;;2.38;;
54835;SDS011;43486;43.574;1.476;2022-12-13T15:21:39;7.00;;;3.53;;
54835;SDS011;43486;43.574;1.476;2022-12-13T15:24:05;4.78;;;2.47;;
54835;SDS011;43486;43.574;1.476;2022-12-13T15:26:31;8.38;;;2.53;;
54835;SDS011;43486;43.574;1.476;2022-12-13T15:28:58;4.65;;;2.67;;
54835;SDS011;43486;43.574;1.476;2022-12-13T15:31:25;5.63;;;2.45;;
54835;SDS011;43486;43.574;1.476;2022-12-13T15:33:50;4.93;;;2.25;;
54835;SDS011;43486;43.574;1.476;2022-12-13T15:41:20;5.22;;;2.63;;
54835;SDS011;43486;43.574;1.476;2022-12-13T15:43:49;4.93;;;2.05;;
54835;SDS011;43486;43.574;1.476;2022-12-13T15:46:27;6.60;;;2.90;;
54835;SDS011;43486;43.574;1.476;2022-12-13T15:48:54;5.90;;;2.78;;
54835;SDS011;43486;43.574;1.476;2022-12-13T15:51:21;5.90;;;2.85;;
54835;SDS011;43486;43.574;1.476;2022-12-13T15:58:54;4.25;;;2.50;;
54835;SDS011;43486;43.574;1.476;2022-12-13T16:01:27;6.65;;;2.88;;
54835;SDS011;43486;43.574;1.476;2022-12-13T16:03:53;4.65;;;2.28;;
54835;SDS011;43486;43.574;1.476;2022-12-13T16:06:19;5.82;;;2.00;;
54835;SDS011;43486;43.574;1.476;2022-12-13T16:08:48;11.20;;;3.15;;
54835;SDS011;43486;43.574;1.476;2022-12-13T16:11:15;7.90;;;3.15;;
54835;SDS011;43486;43.574;1.476;2022-12-13T16:13:50;4.65;;;2.67;;
54835;SDS011;43486;43.574;1.476;2022-12-13T16:18:55;5.93;;;2.60;;
54835;SDS011;43486;43.574;1.476;2022-12-13T16:21:22;6.45;;;2.75;;
54835;SDS011;43486;43.574;1.476;2022-12-13T16:23:48;7.00;;;2.40;;
54835;SDS011;43486;43.574;1.476;2022-12-13T16:26:13;5.40;;;2.45;;
54835;SDS011;43486;43.574;1.476;2022-12-13T16:28:39;4.30;;;2.63;;
54835;SDS011;43486;43.574;1.476;2022-12-13T16:36:14;6.80;;;2.67;;
54835;SDS011;43486;43.574;1.476;2022-12-13T16:38:40;5.43;;;2.53;;
54835;SDS011;43486;43.574;1.476;2022-12-13T16:41:05;5.40;;;2.97;;
54835;SDS011;43486;43.574;1.476;2022-12-13T16:43:32;4.90;;;2.08;;
54835;SDS011;43486;43.574;1.476;2022-12-13T16:45:59;6.38;;;2.72;;
54835;SDS011;43486;43.574;1.476;2022-12-13T16:48:27;5.72;;;3.08;;
54835;SDS011;43486;43.574;1.476;2022-12-13T16:50:53;5.47;;;2.08;;
54835;SDS011;43486;43.574;1.476;2022-12-13T16:53:18;5.03;;;2.28;;
54835;SDS011;43486;43.574;1.476;2022-12-13T16:55:44;5.63;;;3.20;;
54835;SDS011;43486;43.574;1.476;2022-12-13T16:58:10;4.88;;;2.20;;
54835;SDS011;43486;43.574;1.476;2022-12-13T17:00:37;4.65;;;2.90;;
54835;SDS011;43486;43.574;1.476;2022-12-13T17:03:03;6.90;;;3.10;;
54835;SDS011;43486;43.574;1.476;2022-12-13T17:05:29;5.28;;;2.60;;
54835;SDS011;43486;43.574;1.476;2022-12-13T17:07:55;7.15;;;2.83;;
54835;SDS011;43486;43.574;1.476;2022-12-13T17:10:20;4.45;;;2.28;;
54835;SDS011;43486;43.574;1.476;2022-12-13T17:12:46;4.75;;;2.83;;
54835;SDS011;43486;43.574;1.476;2022-12-13T17:15:12;5.90;;;2.60;;
54835;SDS011;43486;43.574;1.476;2022-12-13T17:17:46;7.53;;;2.95;;
54835;SDS011;43486;43.574;1.476;2022-12-13T17:20:13;6.32;;;2.45;;
54835;SDS011;43486;43.574;1.476;2022-12-13T17:22:40;6.32;;;3.33;;
54835;SDS011;43486;43.574;1.476;2022-12-13T17:25:06;5.00;;;2.47;;
54835;SDS011;43486;43.574;1.476;2022-12-13T17:27:32;5.53;;;3.05;;
54835;SDS011;43486;43.574;1.476;2022-12-13T17:29:58;3.90;;;2.22;;
54835;SDS011;43486;43.574;1.476;2022-12-13T17:32:25;5.82;;;2.67;;